sensor_id;sensor_type;location;lat;lon;timestamp;P1;durP1;ratioP1;P2;durP2;ratioP2
29238;SDS011;16267;48.194;11.546;2024-03-08T00:00:27;14.88;;;6.25;;
29238;SDS011;16267;48.194;11.546;2024-03-08T00:02:53;14.80;;;5.70;;
29238;SDS011;16267;48.194;11.546;2024-03-08T00:05:19;13.52;;;5.95;;
29238;SDS011;16267;48.194;11.546;2024-03-08T00:07:45;12.73;;;6.25;;
29238;SDS011;16267;48.194;11.546;2024-03-08T00:10:12;14.73;;;6.07;;
29238;SDS011;16267;48.194;11.546;2024-03-08T00:12:42;13.02;;;6.57;;
29238;SDS011;16267;48.194;11.546;2024-03-08T00:15:13;12.68;;;6.72;;
29238;SDS011;16267;48.194;11.546;2024-03-08T00:17:41;13.60;;;6.30;;
29238;SDS011;16267;48.194;11.546;2024-03-08T00:20:08;11.40;;;5.68;;
29238;SDS011;16267;48.194;11.546;2024-03-08T00:22:34;16.13;;;6.20;;
29238;SDS011;16267;48.194;11.546;2024-03-08T00:25:01;12.75;;;5.80;;
29238;SDS011;16267;48.194;11.546;2024-03-08T00:27:28;15.73;;;5.78;;
29238;SDS011;16267;48.194;11.546;2024-03-08T00:29:58;13.27;;;5.50;;
29238;SDS011;16267;48.194;11.546;2024-03-08T00:32:25;12.30;;;5.32;;
29238;SDS011;16267;48.194;11.546;2024-03-08T00:34:52;14.52;;;6.57;;
29238;SDS011;16267;48.194;11.546;2024-03-08T00:37:21;12.48;;;5.82;;
29238;SDS011;16267;48.194;11.546;2024-03-08T00:39:50;11.43;;;5.22;;
29238;SDS011;16267;48.194;11.546;2024-03-08T00:42:17;14.55;;;6.55;;
29238;SDS011;16267;48.194;11.546;2024-03-08T00:44:43;13.48;;;6.35;;
29238;SDS011;16267;48.194;11.546;2024-03-08T00:47:09;14.77;;;6.20;;
29238;SDS011;16267;48.194;11.546;2024-03-08T00:49:36;15.18;;;6.82;;
29238;SDS011;16267;48.194;11.546;2024-03-08T00:52:06;10.23;;;5.63;;
29238;SDS011;16267;48.194;11.546;2024-03-08T00:54:32;12.57;;;5.68;;
29238;SDS011;16267;48.194;11.546;2024-03-08T00:56:58;19.73;;;6.90;;
29238;SDS011;16267;48.194;11.546;2024-03-08T00:59:24;14.63;;;6.95;;
29238;SDS011;16267;48.194;11.546;2024-03-08T01:01:50;15.40;;;6.88;;
29238;SDS011;16267;48.194;11.546;2024-03-08T01:04:16;13.35;;;6.32;;
29238;SDS011;16267;48.194;11.546;2024-03-08T01:06:42;14.50;;;5.82;;
29238;SDS011;16267;48.194;11.546;2024-03-08T01:09:12;12.38;;;5.97;;
29238;SDS011;16267;48.194;11.546;2024-03-08T01:11:38;13.95;;;6.50;;
29238;SDS011;16267;48.194;11.546;2024-03-08T01:14:04;17.42;;;6.68;;
29238;SDS011;16267;48.194;11.546;2024-03-08T01:16:30;16.80;;;6.32;;
29238;SDS011;16267;48.194;11.546;2024-03-08T01:18:58;15.82;;;6.53;;
29238;SDS011;16267;48.194;11.546;2024-03-08T01:21:24;14.55;;;6.20;;
29238;SDS011;16267;48.194;11.546;2024-03-08T01:23:49;13.98;;;5.93;;
29238;SDS011;16267;48.194;11.546;2024-03-08T01:26:15;18.60;;;6.63;;
29238;SDS011;16267;48.194;11.546;2024-03-08T01:28:41;10.88;;;5.68;;
29238;SDS011;16267;48.194;11.546;2024-03-08T01:31:07;12.55;;;5.65;;
29238;SDS011;16267;48.194;11.546;2024-03-08T01:33:32;15.23;;;6.28;;
29238;SDS011;16267;48.194;11.546;2024-03-08T01:35:58;15.57;;;6.18;;
29238;SDS011;16267;48.194;11.546;2024-03-08T01:38:24;13.75;;;5.95;;
29238;SDS011;16267;48.194;11.546;2024-03-08T01:40:50;15.60;;;6.43;;
29238;SDS011;16267;48.194;11.546;2024-03-08T01:45:46;13.80;;;6.50;;
29238;SDS011;16267;48.194;11.546;2024-03-08T01:48:13;15.80;;;6.63;;
29238;SDS011;16267;48.194;11.546;2024-03-08T01:50:40;13.05;;;6.93;;
29238;SDS011;16267;48.194;11.546;2024-03-08T01:53:07;13.52;;;6.35;;
29238;SDS011;16267;48.194;11.546;2024-03-08T01:55:35;20.75;;;6.85;;
29238;SDS011;16267;48.194;11.546;2024-03-08T01:58:02;15.55;;;7.25;;
29238;SDS011;16267;48.194;11.546;2024-03-08T02:00:30;15.15;;;6.97;;
29238;SDS011;16267;48.194;11.546;2024-03-08T02:02:57;14.07;;;6.30;;
29238;SDS011;16267;48.194;11.546;2024-03-08T02:05:24;15.15;;;6.93;;
29238;SDS011;16267;48.194;11.546;2024-03-08T02:07:50;19.83;;;7.57;;
29238;SDS011;16267;48.194;11.546;2024-03-08T02:10:16;18.98;;;7.00;;
29238;SDS011;16267;48.194;11.546;2024-03-08T02:12:43;20.52;;;7.88;;
29238;SDS011;16267;48.194;11.546;2024-03-08T02:15:09;16.80;;;7.60;;
29238;SDS011;16267;48.194;11.546;2024-03-08T02:17:35;15.43;;;7.65;;
29238;SDS011;16267;48.194;11.546;2024-03-08T02:20:01;12.02;;;6.38;;
29238;SDS011;16267;48.194;11.546;2024-03-08T02:22:28;14.80;;;6.43;;
29238;SDS011;16267;48.194;11.546;2024-03-08T02:24:57;16.45;;;6.95;;
29238;SDS011;16267;48.194;11.546;2024-03-08T02:27:27;17.38;;;7.13;;
29238;SDS011;16267;48.194;11.546;2024-03-08T02:29:55;17.05;;;6.97;;
29238;SDS011;16267;48.194;11.546;2024-03-08T02:32:22;11.50;;;6.22;;
29238;SDS011;16267;48.194;11.546;2024-03-08T02:34:51;17.77;;;7.47;;
29238;SDS011;16267;48.194;11.546;2024-03-08T02:37:21;15.30;;;6.68;;
29238;SDS011;16267;48.194;11.546;2024-03-08T02:39:47;18.02;;;7.07;;
29238;SDS011;16267;48.194;11.546;2024-03-08T02:42:12;15.52;;;6.25;;
29238;SDS011;16267;48.194;11.546;2024-03-08T02:44:42;15.38;;;6.90;;
29238;SDS011;16267;48.194;11.546;2024-03-08T02:47:10;15.50;;;6.63;;
29238;SDS011;16267;48.194;11.546;2024-03-08T02:49:36;16.63;;;7.10;;
29238;SDS011;16267;48.194;11.546;2024-03-08T02:52:03;19.98;;;7.18;;
29238;SDS011;16267;48.194;11.546;2024-03-08T02:54:30;15.35;;;6.63;;
29238;SDS011;16267;48.194;11.546;2024-03-08T02:56:56;15.48;;;7.13;;
29238;SDS011;16267;48.194;11.546;2024-03-08T02:59:21;18.48;;;7.40;;
29238;SDS011;16267;48.194;11.546;2024-03-08T03:01:48;16.45;;;7.47;;
29238;SDS011;16267;48.194;11.546;2024-03-08T03:04:14;12.07;;;6.05;;
29238;SDS011;16267;48.194;11.546;2024-03-08T03:06:40;21.15;;;8.57;;
29238;SDS011;16267;48.194;11.546;2024-03-08T03:09:06;19.58;;;7.95;;
29238;SDS011;16267;48.194;11.546;2024-03-08T03:11:32;18.38;;;7.05;;
29238;SDS011;16267;48.194;11.546;2024-03-08T03:13:57;16.27;;;7.40;;
29238;SDS011;16267;48.194;11.546;2024-03-08T03:16:23;19.77;;;7.93;;
29238;SDS011;16267;48.194;11.546;2024-03-08T03:18:49;15.25;;;6.90;;
29238;SDS011;16267;48.194;11.546;2024-03-08T03:21:15;15.65;;;6.68;;
29238;SDS011;16267;48.194;11.546;2024-03-08T03:23:40;20.02;;;8.20;;
29238;SDS011;16267;48.194;11.546;2024-03-08T03:26:09;20.42;;;7.55;;
29238;SDS011;16267;48.194;11.546;2024-03-08T03:28:38;17.30;;;7.78;;
29238;SDS011;16267;48.194;11.546;2024-03-08T03:31:08;17.08;;;7.45;;
29238;SDS011;16267;48.194;11.546;2024-03-08T03:33:39;15.55;;;7.95;;
29238;SDS011;16267;48.194;11.546;2024-03-08T03:36:05;17.42;;;7.05;;
29238;SDS011;16267;48.194;11.546;2024-03-08T03:38:33;20.13;;;8.55;;
29238;SDS011;16267;48.194;11.546;2024-03-08T03:40:59;16.60;;;7.80;;
29238;SDS011;16267;48.194;11.546;2024-03-08T03:43:34;16.40;;;6.95;;
29238;SDS011;16267;48.194;11.546;2024-03-08T03:46:05;12.18;;;6.30;;
29238;SDS011;16267;48.194;11.546;2024-03-08T03:48:32;16.45;;;7.43;;
29238;SDS011;16267;48.194;11.546;2024-03-08T03:50:58;16.33;;;7.30;;
29238;SDS011;16267;48.194;11.546;2024-03-08T03:53:24;19.20;;;8.20;;
29238;SDS011;16267;48.194;11.546;2024-03-08T03:55:51;19.60;;;7.25;;
29238;SDS011;16267;48.194;11.546;2024-03-08T03:58:16;14.77;;;7.15;;
29238;SDS011;16267;48.194;11.546;2024-03-08T04:00:47;17.92;;;8.07;;
29238;SDS011;16267;48.194;11.546;2024-03-08T04:03:14;16.73;;;7.45;;
29238;SDS011;16267;48.194;11.546;2024-03-08T04:05:39;13.55;;;6.47;;
29238;SDS011;16267;48.194;11.546;2024-03-08T04:08:05;15.43;;;7.15;;
29238;SDS011;16267;48.194;11.546;2024-03-08T04:10:31;18.23;;;6.18;;
29238;SDS011;16267;48.194;11.546;2024-03-08T04:12:57;16.35;;;7.30;;
29238;SDS011;16267;48.194;11.546;2024-03-08T04:15:22;13.60;;;7.35;;
29238;SDS011;16267;48.194;11.546;2024-03-08T04:17:48;21.33;;;8.07;;
29238;SDS011;16267;48.194;11.546;2024-03-08T04:20:14;19.92;;;8.63;;
29238;SDS011;16267;48.194;11.546;2024-03-08T04:22:40;13.90;;;7.05;;
29238;SDS011;16267;48.194;11.546;2024-03-08T04:25:06;13.50;;;6.82;;
29238;SDS011;16267;48.194;11.546;2024-03-08T04:27:32;16.83;;;7.93;;
29238;SDS011;16267;48.194;11.546;2024-03-08T04:29:59;18.80;;;8.02;;
29238;SDS011;16267;48.194;11.546;2024-03-08T04:32:25;17.98;;;7.75;;
29238;SDS011;16267;48.194;11.546;2024-03-08T04:34:53;19.00;;;8.73;;
29238;SDS011;16267;48.194;11.546;2024-03-08T04:37:18;14.98;;;7.72;;
29238;SDS011;16267;48.194;11.546;2024-03-08T04:39:47;25.65;;;8.75;;
29238;SDS011;16267;48.194;11.546;2024-03-08T04:42:13;15.52;;;7.57;;
29238;SDS011;16267;48.194;11.546;2024-03-08T04:44:40;23.13;;;8.98;;
29238;SDS011;16267;48.194;11.546;2024-03-08T04:47:05;21.98;;;9.63;;
29238;SDS011;16267;48.194;11.546;2024-03-08T04:49:32;19.08;;;8.75;;
29238;SDS011;16267;48.194;11.546;2024-03-08T04:52:04;18.38;;;8.15;;
29238;SDS011;16267;48.194;11.546;2024-03-08T04:54:31;21.50;;;9.40;;
29238;SDS011;16267;48.194;11.546;2024-03-08T04:56:57;20.25;;;8.68;;
29238;SDS011;16267;48.194;11.546;2024-03-08T04:59:27;20.08;;;9.13;;
29238;SDS011;16267;48.194;11.546;2024-03-08T05:01:52;24.83;;;9.77;;
29238;SDS011;16267;48.194;11.546;2024-03-08T05:04:18;19.90;;;8.77;;
29238;SDS011;16267;48.194;11.546;2024-03-08T05:06:44;27.25;;;9.77;;
29238;SDS011;16267;48.194;11.546;2024-03-08T05:09:10;28.73;;;9.68;;
29238;SDS011;16267;48.194;11.546;2024-03-08T05:11:39;19.08;;;8.55;;
29238;SDS011;16267;48.194;11.546;2024-03-08T05:14:06;20.10;;;9.23;;
29238;SDS011;16267;48.194;11.546;2024-03-08T05:16:32;24.65;;;10.15;;
29238;SDS011;16267;48.194;11.546;2024-03-08T05:18:57;21.80;;;8.32;;
29238;SDS011;16267;48.194;11.546;2024-03-08T05:21:23;21.85;;;9.63;;
29238;SDS011;16267;48.194;11.546;2024-03-08T05:23:49;23.10;;;9.55;;
29238;SDS011;16267;48.194;11.546;2024-03-08T05:26:16;25.65;;;10.57;;
29238;SDS011;16267;48.194;11.546;2024-03-08T05:28:42;18.52;;;8.18;;
29238;SDS011;16267;48.194;11.546;2024-03-08T05:31:08;22.77;;;8.50;;
29238;SDS011;16267;48.194;11.546;2024-03-08T05:33:33;19.60;;;10.15;;
29238;SDS011;16267;48.194;11.546;2024-03-08T05:36:02;27.50;;;11.65;;
29238;SDS011;16267;48.194;11.546;2024-03-08T05:38:28;24.92;;;11.07;;
29238;SDS011;16267;48.194;11.546;2024-03-08T05:40:54;23.77;;;10.85;;
29238;SDS011;16267;48.194;11.546;2024-03-08T05:43:20;21.17;;;9.90;;
29238;SDS011;16267;48.194;11.546;2024-03-08T05:45:46;23.35;;;10.63;;
29238;SDS011;16267;48.194;11.546;2024-03-08T05:48:13;24.38;;;10.40;;
29238;SDS011;16267;48.194;11.546;2024-03-08T05:50:39;21.70;;;10.10;;
29238;SDS011;16267;48.194;11.546;2024-03-08T05:53:04;23.35;;;11.63;;
29238;SDS011;16267;48.194;11.546;2024-03-08T05:55:33;27.38;;;10.63;;
29238;SDS011;16267;48.194;11.546;2024-03-08T05:58:01;25.10;;;10.63;;
29238;SDS011;16267;48.194;11.546;2024-03-08T06:00:27;27.88;;;10.65;;
29238;SDS011;16267;48.194;11.546;2024-03-08T06:02:53;25.63;;;10.73;;
29238;SDS011;16267;48.194;11.546;2024-03-08T06:05:20;25.08;;;11.07;;
29238;SDS011;16267;48.194;11.546;2024-03-08T06:07:48;27.73;;;11.30;;
29238;SDS011;16267;48.194;11.546;2024-03-08T06:10:14;33.95;;;11.32;;
29238;SDS011;16267;48.194;11.546;2024-03-08T06:12:42;24.95;;;10.57;;
29238;SDS011;16267;48.194;11.546;2024-03-08T06:15:08;26.58;;;10.52;;
29238;SDS011;16267;48.194;11.546;2024-03-08T06:17:35;24.40;;;10.23;;
29238;SDS011;16267;48.194;11.546;2024-03-08T06:20:01;29.00;;;10.68;;
29238;SDS011;16267;48.194;11.546;2024-03-08T06:22:29;29.20;;;10.02;;
29238;SDS011;16267;48.194;11.546;2024-03-08T06:24:55;24.15;;;10.25;;
29238;SDS011;16267;48.194;11.546;2024-03-08T06:27:21;27.42;;;10.68;;
29238;SDS011;16267;48.194;11.546;2024-03-08T06:29:47;25.98;;;10.63;;
29238;SDS011;16267;48.194;11.546;2024-03-08T06:32:14;33.47;;;11.63;;
29238;SDS011;16267;48.194;11.546;2024-03-08T06:34:40;24.58;;;10.68;;
29238;SDS011;16267;48.194;11.546;2024-03-08T06:37:06;31.23;;;10.10;;
29238;SDS011;16267;48.194;11.546;2024-03-08T06:39:32;26.30;;;11.00;;
29238;SDS011;16267;48.194;11.546;2024-03-08T06:41:59;22.20;;;9.10;;
29238;SDS011;16267;48.194;11.546;2024-03-08T06:44:25;23.48;;;10.73;;
29238;SDS011;16267;48.194;11.546;2024-03-08T06:46:51;34.45;;;10.43;;
29238;SDS011;16267;48.194;11.546;2024-03-08T06:49:16;27.95;;;11.00;;
29238;SDS011;16267;48.194;11.546;2024-03-08T06:51:42;23.85;;;10.00;;
29238;SDS011;16267;48.194;11.546;2024-03-08T06:54:08;26.05;;;10.52;;
29238;SDS011;16267;48.194;11.546;2024-03-08T06:56:37;25.58;;;10.43;;
29238;SDS011;16267;48.194;11.546;2024-03-08T06:59:03;24.65;;;9.10;;
29238;SDS011;16267;48.194;11.546;2024-03-08T07:01:29;20.50;;;9.13;;
29238;SDS011;16267;48.194;11.546;2024-03-08T07:03:57;27.38;;;9.85;;
29238;SDS011;16267;48.194;11.546;2024-03-08T07:06:23;26.65;;;10.98;;
29238;SDS011;16267;48.194;11.546;2024-03-08T07:08:49;28.30;;;10.30;;
29238;SDS011;16267;48.194;11.546;2024-03-08T07:11:15;24.27;;;10.70;;
29238;SDS011;16267;48.194;11.546;2024-03-08T07:13:46;24.77;;;10.50;;
29238;SDS011;16267;48.194;11.546;2024-03-08T07:16:12;19.50;;;8.70;;
29238;SDS011;16267;48.194;11.546;2024-03-08T07:18:38;19.58;;;9.18;;
29238;SDS011;16267;48.194;11.546;2024-03-08T07:21:08;18.27;;;8.57;;
29238;SDS011;16267;48.194;11.546;2024-03-08T07:23:36;24.65;;;9.60;;
29238;SDS011;16267;48.194;11.546;2024-03-08T07:26:15;27.58;;;9.85;;
29238;SDS011;16267;48.194;11.546;2024-03-08T07:28:41;23.55;;;9.68;;
29238;SDS011;16267;48.194;11.546;2024-03-08T07:31:07;25.75;;;9.93;;
29238;SDS011;16267;48.194;11.546;2024-03-08T07:33:42;21.90;;;8.30;;
29238;SDS011;16267;48.194;11.546;2024-03-08T07:36:08;26.67;;;8.48;;
29238;SDS011;16267;48.194;11.546;2024-03-08T07:38:34;22.02;;;9.60;;
29238;SDS011;16267;48.194;11.546;2024-03-08T07:40:59;22.17;;;9.05;;
29238;SDS011;16267;48.194;11.546;2024-03-08T07:43:25;22.13;;;9.50;;
29238;SDS011;16267;48.194;11.546;2024-03-08T07:45:52;23.77;;;9.98;;
29238;SDS011;16267;48.194;11.546;2024-03-08T07:48:20;23.17;;;10.70;;
29238;SDS011;16267;48.194;11.546;2024-03-08T07:50:47;21.17;;;9.27;;
29238;SDS011;16267;48.194;11.546;2024-03-08T07:53:14;25.02;;;9.65;;
29238;SDS011;16267;48.194;11.546;2024-03-08T07:55:40;23.27;;;9.55;;
29238;SDS011;16267;48.194;11.546;2024-03-08T07:58:07;25.20;;;9.43;;
29238;SDS011;16267;48.194;11.546;2024-03-08T08:00:36;21.25;;;9.40;;
29238;SDS011;16267;48.194;11.546;2024-03-08T08:03:02;24.92;;;10.68;;
29238;SDS011;16267;48.194;11.546;2024-03-08T08:05:29;17.50;;;8.43;;
29238;SDS011;16267;48.194;11.546;2024-03-08T08:08:00;18.45;;;8.27;;
29238;SDS011;16267;48.194;11.546;2024-03-08T08:10:32;20.55;;;9.00;;
29238;SDS011;16267;48.194;11.546;2024-03-08T08:12:58;23.90;;;9.57;;
29238;SDS011;16267;48.194;11.546;2024-03-08T08:15:24;17.33;;;8.85;;
29238;SDS011;16267;48.194;11.546;2024-03-08T08:17:49;25.48;;;9.63;;
29238;SDS011;16267;48.194;11.546;2024-03-08T08:20:18;25.90;;;9.18;;
29238;SDS011;16267;48.194;11.546;2024-03-08T08:22:43;19.13;;;9.25;;
29238;SDS011;16267;48.194;11.546;2024-03-08T08:25:09;27.83;;;10.10;;
29238;SDS011;16267;48.194;11.546;2024-03-08T08:27:38;25.35;;;9.90;;
29238;SDS011;16267;48.194;11.546;2024-03-08T08:30:07;27.35;;;10.85;;
29238;SDS011;16267;48.194;11.546;2024-03-08T08:32:37;26.35;;;9.63;;
29238;SDS011;16267;48.194;11.546;2024-03-08T08:35:09;20.70;;;8.85;;
29238;SDS011;16267;48.194;11.546;2024-03-08T08:37:40;21.30;;;8.65;;
29238;SDS011;16267;48.194;11.546;2024-03-08T08:40:07;27.10;;;9.68;;
29238;SDS011;16267;48.194;11.546;2024-03-08T08:45:05;25.90;;;8.75;;
29238;SDS011;16267;48.194;11.546;2024-03-08T08:47:35;23.90;;;10.10;;
29238;SDS011;16267;48.194;11.546;2024-03-08T08:50:02;24.95;;;9.65;;
29238;SDS011;16267;48.194;11.546;2024-03-08T08:52:33;22.73;;;8.38;;
29238;SDS011;16267;48.194;11.546;2024-03-08T08:54:59;20.48;;;9.25;;
29238;SDS011;16267;48.194;11.546;2024-03-08T08:57:25;22.98;;;8.38;;
29238;SDS011;16267;48.194;11.546;2024-03-08T08:59:53;23.38;;;9.52;;
29238;SDS011;16267;48.194;11.546;2024-03-08T09:02:19;21.83;;;9.48;;
29238;SDS011;16267;48.194;11.546;2024-03-08T09:04:46;23.33;;;9.23;;
29238;SDS011;16267;48.194;11.546;2024-03-08T09:07:13;20.52;;;9.27;;
29238;SDS011;16267;48.194;11.546;2024-03-08T09:09:39;22.85;;;9.73;;
29238;SDS011;16267;48.194;11.546;2024-03-08T09:12:07;25.40;;;9.65;;
29238;SDS011;16267;48.194;11.546;2024-03-08T09:14:33;29.77;;;10.52;;
29238;SDS011;16267;48.194;11.546;2024-03-08T09:16:59;27.63;;;10.07;;
29238;SDS011;16267;48.194;11.546;2024-03-08T09:19:25;26.77;;;10.48;;
29238;SDS011;16267;48.194;11.546;2024-03-08T09:21:51;23.77;;;9.48;;
29238;SDS011;16267;48.194;11.546;2024-03-08T09:24:17;21.83;;;9.38;;
29238;SDS011;16267;48.194;11.546;2024-03-08T09:26:43;20.33;;;9.77;;
29238;SDS011;16267;48.194;11.546;2024-03-08T09:29:09;20.98;;;9.95;;
29238;SDS011;16267;48.194;11.546;2024-03-08T09:31:36;24.45;;;11.02;;
29238;SDS011;16267;48.194;11.546;2024-03-08T09:34:03;24.10;;;9.80;;
29238;SDS011;16267;48.194;11.546;2024-03-08T09:36:29;20.55;;;8.55;;
29238;SDS011;16267;48.194;11.546;2024-03-08T09:38:57;23.52;;;10.07;;
29238;SDS011;16267;48.194;11.546;2024-03-08T09:41:23;25.08;;;9.70;;
29238;SDS011;16267;48.194;11.546;2024-03-08T09:43:49;23.35;;;9.45;;
29238;SDS011;16267;48.194;11.546;2024-03-08T09:46:15;22.23;;;9.15;;
29238;SDS011;16267;48.194;11.546;2024-03-08T09:48:44;21.15;;;10.10;;
29238;SDS011;16267;48.194;11.546;2024-03-08T09:51:11;19.77;;;9.00;;
29238;SDS011;16267;48.194;11.546;2024-03-08T09:53:40;20.40;;;9.20;;
29238;SDS011;16267;48.194;11.546;2024-03-08T09:56:07;23.38;;;9.93;;
29238;SDS011;16267;48.194;11.546;2024-03-08T09:58:33;23.95;;;9.65;;
29238;SDS011;16267;48.194;11.546;2024-03-08T10:00:59;19.20;;;9.77;;
29238;SDS011;16267;48.194;11.546;2024-03-08T10:03:29;18.48;;;8.75;;
29238;SDS011;16267;48.194;11.546;2024-03-08T10:05:57;21.13;;;9.45;;
29238;SDS011;16267;48.194;11.546;2024-03-08T10:08:29;19.83;;;9.32;;
29238;SDS011;16267;48.194;11.546;2024-03-08T10:10:55;20.75;;;8.95;;
29238;SDS011;16267;48.194;11.546;2024-03-08T10:13:24;22.52;;;9.57;;
29238;SDS011;16267;48.194;11.546;2024-03-08T10:15:55;22.92;;;9.25;;
29238;SDS011;16267;48.194;11.546;2024-03-08T10:18:21;19.73;;;8.80;;
29238;SDS011;16267;48.194;11.546;2024-03-08T10:21:01;21.55;;;8.48;;
29238;SDS011;16267;48.194;11.546;2024-03-08T10:23:32;21.45;;;9.30;;
29238;SDS011;16267;48.194;11.546;2024-03-08T10:26:32;19.73;;;8.68;;
29238;SDS011;16267;48.194;11.546;2024-03-08T10:28:51;18.33;;;8.80;;
29238;SDS011;16267;48.194;11.546;2024-03-08T10:31:18;19.13;;;7.85;;
29238;SDS011;16267;48.194;11.546;2024-03-08T10:33:45;17.55;;;7.68;;
29238;SDS011;16267;48.194;11.546;2024-03-08T10:36:13;16.10;;;7.80;;
29238;SDS011;16267;48.194;11.546;2024-03-08T10:38:40;25.60;;;9.38;;
29238;SDS011;16267;48.194;11.546;2024-03-08T10:41:09;18.15;;;8.70;;
29238;SDS011;16267;48.194;11.546;2024-03-08T10:44:26;20.35;;;9.32;;
29238;SDS011;16267;48.194;11.546;2024-03-08T10:49:42;15.80;;;8.02;;
29238;SDS011;16267;48.194;11.546;2024-03-08T10:52:31;21.13;;;9.32;;
29238;SDS011;16267;48.194;11.546;2024-03-08T10:54:59;15.88;;;7.32;;
29238;SDS011;16267;48.194;11.546;2024-03-08T10:57:27;22.88;;;10.95;;
29238;SDS011;16267;48.194;11.546;2024-03-08T10:59:53;25.67;;;7.75;;
29238;SDS011;16267;48.194;11.546;2024-03-08T11:02:20;17.17;;;8.38;;
29238;SDS011;16267;48.194;11.546;2024-03-08T11:04:49;20.20;;;8.25;;
29238;SDS011;16267;48.194;11.546;2024-03-08T11:07:16;20.42;;;8.18;;
29238;SDS011;16267;48.194;11.546;2024-03-08T11:09:44;16.83;;;7.53;;
29238;SDS011;16267;48.194;11.546;2024-03-08T11:12:21;19.60;;;7.80;;
29238;SDS011;16267;48.194;11.546;2024-03-08T11:14:56;19.08;;;8.25;;
29238;SDS011;16267;48.194;11.546;2024-03-08T11:17:27;18.45;;;8.35;;
29238;SDS011;16267;48.194;11.546;2024-03-08T11:20:10;16.10;;;7.93;;
29238;SDS011;16267;48.194;11.546;2024-03-08T11:22:41;15.52;;;7.57;;
29238;SDS011;16267;48.194;11.546;2024-03-08T11:33:34;14.38;;;7.38;;
29238;SDS011;16267;48.194;11.546;2024-03-08T11:38:49;14.93;;;7.57;;
29238;SDS011;16267;48.194;11.546;2024-03-08T11:41:24;18.70;;;7.00;;
29238;SDS011;16267;48.194;11.546;2024-03-08T11:44:01;16.30;;;7.55;;
29238;SDS011;16267;48.194;11.546;2024-03-08T11:46:32;15.52;;;7.32;;
29238;SDS011;16267;48.194;11.546;2024-03-08T11:48:59;15.88;;;7.35;;
29238;SDS011;16267;48.194;11.546;2024-03-08T11:51:25;16.60;;;7.72;;
29238;SDS011;16267;48.194;11.546;2024-03-08T11:53:52;13.73;;;7.25;;
29238;SDS011;16267;48.194;11.546;2024-03-08T11:56:18;11.93;;;6.25;;
29238;SDS011;16267;48.194;11.546;2024-03-08T11:58:53;13.82;;;6.40;;
29238;SDS011;16267;48.194;11.546;2024-03-08T12:01:22;17.50;;;7.95;;
29238;SDS011;16267;48.194;11.546;2024-03-08T12:03:55;13.45;;;6.85;;
29238;SDS011;16267;48.194;11.546;2024-03-08T12:06:25;12.80;;;7.20;;
29238;SDS011;16267;48.194;11.546;2024-03-08T12:09:01;15.63;;;7.05;;
29238;SDS011;16267;48.194;11.546;2024-03-08T12:11:27;18.25;;;8.13;;
29238;SDS011;16267;48.194;11.546;2024-03-08T12:13:53;14.93;;;7.13;;
29238;SDS011;16267;48.194;11.546;2024-03-08T12:16:19;16.27;;;7.40;;
29238;SDS011;16267;48.194;11.546;2024-03-08T12:18:48;20.17;;;7.43;;
29238;SDS011;16267;48.194;11.546;2024-03-08T12:21:16;15.98;;;6.28;;
29238;SDS011;16267;48.194;11.546;2024-03-08T12:23:45;14.98;;;6.20;;
29238;SDS011;16267;48.194;11.546;2024-03-08T12:26:23;15.05;;;6.85;;
29238;SDS011;16267;48.194;11.546;2024-03-08T12:28:51;12.93;;;6.05;;
29238;SDS011;16267;48.194;11.546;2024-03-08T12:31:17;19.02;;;7.50;;
29238;SDS011;16267;48.194;11.546;2024-03-08T12:33:49;15.50;;;7.32;;
29238;SDS011;16267;48.194;11.546;2024-03-08T12:36:17;14.90;;;7.43;;
29238;SDS011;16267;48.194;11.546;2024-03-08T12:38:46;14.18;;;7.03;;
29238;SDS011;16267;48.194;11.546;2024-03-08T12:41:13;15.32;;;7.15;;
29238;SDS011;16267;48.194;11.546;2024-03-08T12:43:40;14.73;;;7.82;;
29238;SDS011;16267;48.194;11.546;2024-03-08T12:46:06;15.77;;;7.30;;
29238;SDS011;16267;48.194;11.546;2024-03-08T12:48:37;17.98;;;7.45;;
29238;SDS011;16267;48.194;11.546;2024-03-08T12:51:05;17.52;;;8.63;;
29238;SDS011;16267;48.194;11.546;2024-03-08T12:53:32;16.60;;;8.13;;
29238;SDS011;16267;48.194;11.546;2024-03-08T12:55:59;13.05;;;6.82;;
29238;SDS011;16267;48.194;11.546;2024-03-08T12:58:25;16.40;;;7.30;;
29238;SDS011;16267;48.194;11.546;2024-03-08T13:00:51;15.48;;;7.90;;
29238;SDS011;16267;48.194;11.546;2024-03-08T13:03:17;14.82;;;5.85;;
29238;SDS011;16267;48.194;11.546;2024-03-08T13:05:43;11.98;;;5.90;;
29238;SDS011;16267;48.194;11.546;2024-03-08T13:08:09;13.10;;;5.95;;
29238;SDS011;16267;48.194;11.546;2024-03-08T13:10:38;14.48;;;7.18;;
29238;SDS011;16267;48.194;11.546;2024-03-08T13:13:08;13.88;;;6.65;;
29238;SDS011;16267;48.194;11.546;2024-03-08T13:15:35;14.90;;;7.05;;
29238;SDS011;16267;48.194;11.546;2024-03-08T13:18:01;16.98;;;7.68;;
29238;SDS011;16267;48.194;11.546;2024-03-08T13:20:27;15.32;;;6.82;;
29238;SDS011;16267;48.194;11.546;2024-03-08T13:22:54;14.18;;;6.60;;
29238;SDS011;16267;48.194;11.546;2024-03-08T13:25:21;14.55;;;7.07;;
29238;SDS011;16267;48.194;11.546;2024-03-08T13:27:48;13.13;;;6.35;;
29238;SDS011;16267;48.194;11.546;2024-03-08T13:30:14;11.73;;;6.10;;
29238;SDS011;16267;48.194;11.546;2024-03-08T13:32:43;14.57;;;7.38;;
29238;SDS011;16267;48.194;11.546;2024-03-08T13:35:10;16.33;;;6.25;;
29238;SDS011;16267;48.194;11.546;2024-03-08T13:37:40;15.25;;;6.55;;
29238;SDS011;16267;48.194;11.546;2024-03-08T13:40:07;12.82;;;7.15;;
29238;SDS011;16267;48.194;11.546;2024-03-08T13:42:45;15.23;;;7.07;;
29238;SDS011;16267;48.194;11.546;2024-03-08T13:45:12;13.82;;;6.72;;
29238;SDS011;16267;48.194;11.546;2024-03-08T13:47:39;17.27;;;7.35;;
29238;SDS011;16267;48.194;11.546;2024-03-08T13:50:06;15.60;;;7.57;;
29238;SDS011;16267;48.194;11.546;2024-03-08T13:52:36;16.27;;;8.35;;
29238;SDS011;16267;48.194;11.546;2024-03-08T13:55:04;13.95;;;7.05;;
29238;SDS011;16267;48.194;11.546;2024-03-08T13:57:31;18.90;;;8.27;;
29238;SDS011;16267;48.194;11.546;2024-03-08T13:59:57;15.35;;;7.20;;
29238;SDS011;16267;48.194;11.546;2024-03-08T14:02:24;13.55;;;7.00;;
29238;SDS011;16267;48.194;11.546;2024-03-08T14:04:53;17.73;;;7.78;;
29238;SDS011;16267;48.194;11.546;2024-03-08T14:07:22;15.85;;;7.35;;
29238;SDS011;16267;48.194;11.546;2024-03-08T14:09:48;14.68;;;6.25;;
29238;SDS011;16267;48.194;11.546;2024-03-08T14:12:18;15.65;;;6.88;;
29238;SDS011;16267;48.194;11.546;2024-03-08T14:14:44;15.82;;;6.55;;
29238;SDS011;16267;48.194;11.546;2024-03-08T14:17:11;14.25;;;7.38;;
29238;SDS011;16267;48.194;11.546;2024-03-08T14:19:42;13.02;;;7.00;;
29238;SDS011;16267;48.194;11.546;2024-03-08T14:22:08;13.63;;;6.75;;
29238;SDS011;16267;48.194;11.546;2024-03-08T14:24:38;16.33;;;7.75;;
29238;SDS011;16267;48.194;11.546;2024-03-08T14:27:04;13.52;;;6.53;;
29238;SDS011;16267;48.194;11.546;2024-03-08T14:29:33;15.18;;;6.72;;
29238;SDS011;16267;48.194;11.546;2024-03-08T14:31:59;12.20;;;6.88;;
29238;SDS011;16267;48.194;11.546;2024-03-08T14:34:26;16.30;;;8.10;;
29238;SDS011;16267;48.194;11.546;2024-03-08T14:36:53;13.27;;;6.80;;
29238;SDS011;16267;48.194;11.546;2024-03-08T14:39:19;15.82;;;6.72;;